Terminal Aerodrome Forecast
Issued by NWS Bismarck, ND

Home | Current Version | Previous Version | Graphics & Text | Print | Product List | Glossary On
Versions: 1 2 3 4 5 6 7 8 9 10 11 12 13 14 15 16 17 18 19 20 21
000
FTUS43 KBIS 142348
TAFBIS
TAF
KBIS 142348Z 1500/1524 32009KT P6SM BKN100 OVC140
     FM150200 32010KT P6SM SCT150
     FM150300 31011KT P6SM SKC
     FM150600 31015G20KT P6SM SCT025
     FM150900 31017G25KT P6SM SCT018 BKN025 OVC035
     FM151400 33011KT P6SM BKN035
     FM151800 35007KT P6SM FEW040 SCT250=

USA.gov is the U.S. government's official web portal to all federal, state and local government web resources and services.